sensor_id;sensor_type;location;lat;lon;timestamp;P1;durP1;ratioP1;P2;durP2;ratioP2
61025;SDS011;46911;32.650;-16.902;2023-03-14T00:01:24;14.20;;;4.50;;
61025;SDS011;46911;32.650;-16.902;2023-03-14T00:03:25;11.50;;;4.10;;
61025;SDS011;46911;32.650;-16.902;2023-03-14T00:05:35;18.70;;;3.72;;
61025;SDS011;46911;32.650;-16.902;2023-03-14T00:07:37;13.70;;;3.95;;
61025;SDS011;46911;32.650;-16.902;2023-03-14T00:09:41;12.75;;;4.13;;
61025;SDS011;46911;32.650;-16.902;2023-03-14T00:11:41;15.80;;;3.85;;
61025;SDS011;46911;32.650;-16.902;2023-03-14T00:13:47;12.02;;;3.53;;
61025;SDS011;46911;32.650;-16.902;2023-03-14T00:15:54;7.68;;;3.53;;
61025;SDS011;46911;32.650;-16.902;2023-03-14T00:17:57;10.40;;;3.17;;
61025;SDS011;46911;32.650;-16.902;2023-03-14T00:19:58;8.85;;;3.47;;
61025;SDS011;46911;32.650;-16.902;2023-03-14T00:22:04;11.18;;;3.47;;
61025;SDS011;46911;32.650;-16.902;2023-03-14T00:24:05;10.48;;;3.15;;
61025;SDS011;46911;32.650;-16.902;2023-03-14T00:26:11;14.30;;;2.92;;
61025;SDS011;46911;32.650;-16.902;2023-03-14T00:28:16;17.00;;;4.20;;
61025;SDS011;46911;32.650;-16.902;2023-03-14T00:30:17;19.58;;;4.57;;
61025;SDS011;46911;32.650;-16.902;2023-03-14T00:32:21;12.52;;;3.38;;
61025;SDS011;46911;32.650;-16.902;2023-03-14T00:34:22;13.07;;;3.22;;
61025;SDS011;46911;32.650;-16.902;2023-03-14T00:36:30;12.60;;;3.70;;
61025;SDS011;46911;32.650;-16.902;2023-03-14T00:38:34;9.48;;;3.65;;
61025;SDS011;46911;32.650;-16.902;2023-03-14T00:40:38;12.68;;;3.28;;
61025;SDS011;46911;32.650;-16.902;2023-03-14T00:42:40;7.25;;;3.03;;
61025;SDS011;46911;32.650;-16.902;2023-03-14T00:44:40;10.25;;;3.35;;
61025;SDS011;46911;32.650;-16.902;2023-03-14T00:46:41;15.63;;;3.55;;
61025;SDS011;46911;32.650;-16.902;2023-03-14T00:48:45;14.00;;;3.03;;
61025;SDS011;46911;32.650;-16.902;2023-03-14T00:50:49;13.43;;;3.05;;
61025;SDS011;46911;32.650;-16.902;2023-03-14T00:52:50;7.78;;;2.85;;
61025;SDS011;46911;32.650;-16.902;2023-03-14T00:54:53;6.45;;;2.70;;
61025;SDS011;46911;32.650;-16.902;2023-03-14T00:57:01;7.30;;;2.25;;
61025;SDS011;46911;32.650;-16.902;2023-03-14T00:59:02;10.65;;;2.85;;
61025;SDS011;46911;32.650;-16.902;2023-03-14T01:01:09;9.85;;;3.47;;
61025;SDS011;46911;32.650;-16.902;2023-03-14T01:03:14;8.77;;;2.90;;
61025;SDS011;46911;32.650;-16.902;2023-03-14T01:05:15;7.63;;;2.88;;
61025;SDS011;46911;32.650;-16.902;2023-03-14T01:07:16;9.35;;;2.50;;
61025;SDS011;46911;32.650;-16.902;2023-03-14T01:09:17;11.20;;;2.47;;
61025;SDS011;46911;32.650;-16.902;2023-03-14T01:11:29;10.45;;;2.33;;
61025;SDS011;46911;32.650;-16.902;2023-03-14T01:13:35;8.13;;;3.13;;
61025;SDS011;46911;32.650;-16.902;2023-03-14T01:15:37;4.07;;;2.40;;
61025;SDS011;46911;32.650;-16.902;2023-03-14T01:17:47;7.00;;;2.20;;
61025;SDS011;46911;32.650;-16.902;2023-03-14T01:19:50;8.93;;;2.80;;
61025;SDS011;46911;32.650;-16.902;2023-03-14T01:21:51;12.38;;;3.42;;
61025;SDS011;46911;32.650;-16.902;2023-03-14T01:23:52;14.68;;;4.07;;
61025;SDS011;46911;32.650;-16.902;2023-03-14T01:25:55;15.93;;;4.22;;
61025;SDS011;46911;32.650;-16.902;2023-03-14T01:27:56;12.45;;;4.70;;
61025;SDS011;46911;32.650;-16.902;2023-03-14T01:29:59;10.93;;;4.97;;
61025;SDS011;46911;32.650;-16.902;2023-03-14T01:32:00;11.18;;;4.55;;
61025;SDS011;46911;32.650;-16.902;2023-03-14T01:34:08;18.05;;;4.45;;
61025;SDS011;46911;32.650;-16.902;2023-03-14T01:36:12;14.15;;;4.28;;
61025;SDS011;46911;32.650;-16.902;2023-03-14T01:38:19;15.10;;;3.83;;
61025;SDS011;46911;32.650;-16.902;2023-03-14T01:40:20;20.08;;;5.95;;
61025;SDS011;46911;32.650;-16.902;2023-03-14T01:42:21;15.60;;;3.30;;
61025;SDS011;46911;32.650;-16.902;2023-03-14T01:44:26;11.93;;;3.83;;
61025;SDS011;46911;32.650;-16.902;2023-03-14T01:46:43;7.80;;;2.88;;
61025;SDS011;46911;32.650;-16.902;2023-03-14T01:48:50;11.18;;;3.60;;
61025;SDS011;46911;32.650;-16.902;2023-03-14T01:51:35;8.52;;;2.50;;
61025;SDS011;46911;32.650;-16.902;2023-03-14T01:53:39;12.45;;;3.42;;
61025;SDS011;46911;32.650;-16.902;2023-03-14T01:55:45;10.50;;;2.92;;
61025;SDS011;46911;32.650;-16.902;2023-03-14T01:57:48;12.13;;;3.55;;
61025;SDS011;46911;32.650;-16.902;2023-03-14T02:00:23;12.43;;;3.42;;
61025;SDS011;46911;32.650;-16.902;2023-03-14T02:02:25;10.35;;;2.33;;
61025;SDS011;46911;32.650;-16.902;2023-03-14T02:04:28;6.10;;;2.00;;
61025;SDS011;46911;32.650;-16.902;2023-03-14T02:06:35;7.35;;;2.60;;
61025;SDS011;46911;32.650;-16.902;2023-03-14T02:08:46;5.47;;;1.88;;
61025;SDS011;46911;32.650;-16.902;2023-03-14T02:10:53;11.60;;;2.17;;
61025;SDS011;46911;32.650;-16.902;2023-03-14T02:13:18;7.20;;;2.13;;
61025;SDS011;46911;32.650;-16.902;2023-03-14T02:15:31;5.28;;;2.15;;
61025;SDS011;46911;32.650;-16.902;2023-03-14T02:18:01;13.45;;;2.97;;
61025;SDS011;46911;32.650;-16.902;2023-03-14T02:22:30;9.20;;;2.25;;
61025;SDS011;46911;32.650;-16.902;2023-03-14T02:29:11;8.13;;;2.22;;
61025;SDS011;46911;32.650;-16.902;2023-03-14T02:31:15;8.60;;;2.25;;
61025;SDS011;46911;32.650;-16.902;2023-03-14T02:33:19;5.20;;;1.73;;
61025;SDS011;46911;32.650;-16.902;2023-03-14T02:35:28;10.30;;;1.90;;
61025;SDS011;46911;32.650;-16.902;2023-03-14T02:37:56;12.93;;;2.13;;
61025;SDS011;46911;32.650;-16.902;2023-03-14T02:40:00;4.82;;;2.15;;
61025;SDS011;46911;32.650;-16.902;2023-03-14T02:42:08;6.93;;;2.40;;
61025;SDS011;46911;32.650;-16.902;2023-03-14T02:44:09;9.57;;;2.60;;
61025;SDS011;46911;32.650;-16.902;2023-03-14T02:46:16;10.68;;;3.30;;
61025;SDS011;46911;32.650;-16.902;2023-03-14T02:50:45;5.75;;;2.28;;
61025;SDS011;46911;32.650;-16.902;2023-03-14T02:52:48;8.68;;;2.00;;
61025;SDS011;46911;32.650;-16.902;2023-03-14T02:54:52;4.00;;;1.95;;
61025;SDS011;46911;32.650;-16.902;2023-03-14T02:56:53;9.00;;;2.38;;
61025;SDS011;46911;32.650;-16.902;2023-03-14T02:58:57;10.68;;;2.42;;
61025;SDS011;46911;32.650;-16.902;2023-03-14T03:01:15;11.50;;;2.95;;
61025;SDS011;46911;32.650;-16.902;2023-03-14T03:03:21;9.50;;;2.90;;
61025;SDS011;46911;32.650;-16.902;2023-03-14T03:05:28;11.70;;;2.60;;
61025;SDS011;46911;32.650;-16.902;2023-03-14T03:07:31;8.75;;;2.63;;
61025;SDS011;46911;32.650;-16.902;2023-03-14T03:09:33;8.07;;;2.28;;
61025;SDS011;46911;32.650;-16.902;2023-03-14T03:11:36;5.88;;;2.80;;
61025;SDS011;46911;32.650;-16.902;2023-03-14T03:13:39;6.05;;;2.58;;
61025;SDS011;46911;32.650;-16.902;2023-03-14T03:15:41;6.88;;;2.45;;
61025;SDS011;46911;32.650;-16.902;2023-03-14T03:17:46;6.53;;;2.33;;
61025;SDS011;46911;32.650;-16.902;2023-03-14T03:19:47;11.05;;;3.22;;
61025;SDS011;46911;32.650;-16.902;2023-03-14T03:21:48;13.55;;;3.65;;
61025;SDS011;46911;32.650;-16.902;2023-03-14T03:23:49;10.38;;;2.60;;
61025;SDS011;46911;32.650;-16.902;2023-03-14T03:25:50;9.35;;;2.47;;
61025;SDS011;46911;32.650;-16.902;2023-03-14T03:27:52;5.60;;;1.98;;
61025;SDS011;46911;32.650;-16.902;2023-03-14T03:29:53;9.38;;;2.83;;
61025;SDS011;46911;32.650;-16.902;2023-03-14T03:54:52;6.43;;;1.90;;
61025;SDS011;46911;32.650;-16.902;2023-03-14T03:56:58;5.20;;;2.08;;
61025;SDS011;46911;32.650;-16.902;2023-03-14T03:59:01;7.00;;;2.28;;
61025;SDS011;46911;32.650;-16.902;2023-03-14T04:01:05;9.52;;;2.35;;
61025;SDS011;46911;32.650;-16.902;2023-03-14T04:03:10;12.40;;;2.65;;
61025;SDS011;46911;32.650;-16.902;2023-03-14T04:05:14;5.57;;;2.22;;
61025;SDS011;46911;32.650;-16.902;2023-03-14T04:07:21;7.93;;;2.60;;
61025;SDS011;46911;32.650;-16.902;2023-03-14T04:09:22;8.27;;;2.53;;
61025;SDS011;46911;32.650;-16.902;2023-03-14T04:11:42;13.45;;;2.75;;
61025;SDS011;46911;32.650;-16.902;2023-03-14T04:13:58;7.68;;;2.00;;
61025;SDS011;46911;32.650;-16.902;2023-03-14T04:15:59;8.57;;;1.83;;
61025;SDS011;46911;32.650;-16.902;2023-03-14T04:18:03;10.27;;;3.60;;
61025;SDS011;46911;32.650;-16.902;2023-03-14T04:20:05;7.10;;;2.00;;
61025;SDS011;46911;32.650;-16.902;2023-03-14T04:22:11;7.18;;;2.28;;
61025;SDS011;46911;32.650;-16.902;2023-03-14T04:24:20;4.87;;;2.07;;
61025;SDS011;46911;32.650;-16.902;2023-03-14T04:26:23;7.25;;;1.70;;
61025;SDS011;46911;32.650;-16.902;2023-03-14T04:28:23;6.78;;;1.92;;
61025;SDS011;46911;32.650;-16.902;2023-03-14T04:30:25;10.80;;;2.65;;
61025;SDS011;46911;32.650;-16.902;2023-03-14T04:32:36;8.27;;;2.45;;
61025;SDS011;46911;32.650;-16.902;2023-03-14T04:34:39;14.45;;;2.05;;
61025;SDS011;46911;32.650;-16.902;2023-03-14T04:36:43;12.10;;;2.33;;
61025;SDS011;46911;32.650;-16.902;2023-03-14T04:38:49;12.88;;;2.60;;
61025;SDS011;46911;32.650;-16.902;2023-03-14T04:40:53;9.85;;;2.22;;
61025;SDS011;46911;32.650;-16.902;2023-03-14T04:43:03;5.18;;;1.65;;
61025;SDS011;46911;32.650;-16.902;2023-03-14T04:45:07;9.82;;;2.30;;
61025;SDS011;46911;32.650;-16.902;2023-03-14T04:47:09;8.13;;;2.13;;
61025;SDS011;46911;32.650;-16.902;2023-03-14T04:49:17;5.07;;;1.50;;
61025;SDS011;46911;32.650;-16.902;2023-03-14T04:51:21;5.47;;;1.50;;
61025;SDS011;46911;32.650;-16.902;2023-03-14T04:53:23;10.57;;;2.10;;
61025;SDS011;46911;32.650;-16.902;2023-03-14T04:55:27;11.00;;;1.98;;
61025;SDS011;46911;32.650;-16.902;2023-03-14T04:57:34;5.63;;;1.60;;
61025;SDS011;46911;32.650;-16.902;2023-03-14T04:59:35;4.53;;;1.25;;
61025;SDS011;46911;32.650;-16.902;2023-03-14T05:01:53;8.10;;;1.80;;
61025;SDS011;46911;32.650;-16.902;2023-03-14T05:04:20;6.40;;;1.88;;
61025;SDS011;46911;32.650;-16.902;2023-03-14T05:06:29;8.85;;;1.30;;
61025;SDS011;46911;32.650;-16.902;2023-03-14T05:08:49;5.40;;;1.60;;
61025;SDS011;46911;32.650;-16.902;2023-03-14T05:11:28;4.80;;;1.30;;
61025;SDS011;46911;32.650;-16.902;2023-03-14T05:13:48;7.60;;;1.75;;
61025;SDS011;46911;32.650;-16.902;2023-03-14T05:16:10;5.28;;;1.67;;
61025;SDS011;46911;32.650;-16.902;2023-03-14T05:18:34;4.13;;;1.70;;
61025;SDS011;46911;32.650;-16.902;2023-03-14T05:20:49;14.07;;;1.75;;
61025;SDS011;46911;32.650;-16.902;2023-03-14T05:23:12;8.57;;;1.48;;
61025;SDS011;46911;32.650;-16.902;2023-03-14T05:25:33;5.70;;;1.50;;
61025;SDS011;46911;32.650;-16.902;2023-03-14T05:27:47;7.30;;;1.88;;
61025;SDS011;46911;32.650;-16.902;2023-03-14T05:30:17;8.90;;;2.00;;
61025;SDS011;46911;32.650;-16.902;2023-03-14T05:32:31;5.50;;;2.05;;
61025;SDS011;46911;32.650;-16.902;2023-03-14T05:34:55;7.63;;;1.65;;
61025;SDS011;46911;32.650;-16.902;2023-03-14T05:37:07;4.75;;;1.77;;
61025;SDS011;46911;32.650;-16.902;2023-03-14T05:39:27;7.97;;;1.95;;
61025;SDS011;46911;32.650;-16.902;2023-03-14T05:42:02;5.40;;;1.70;;
61025;SDS011;46911;32.650;-16.902;2023-03-14T05:44:28;8.60;;;1.80;;
61025;SDS011;46911;32.650;-16.902;2023-03-14T05:46:37;16.95;;;2.17;;
61025;SDS011;46911;32.650;-16.902;2023-03-14T05:49:04;9.95;;;2.22;;
61025;SDS011;46911;32.650;-16.902;2023-03-14T05:51:23;5.80;;;1.73;;
61025;SDS011;46911;32.650;-16.902;2023-03-14T05:53:56;7.30;;;2.53;;
61025;SDS011;46911;32.650;-16.902;2023-03-14T05:56:20;4.00;;;1.63;;
61025;SDS011;46911;32.650;-16.902;2023-03-14T05:58:30;6.28;;;1.58;;
61025;SDS011;46911;32.650;-16.902;2023-03-14T06:01:06;4.97;;;1.95;;
61025;SDS011;46911;32.650;-16.902;2023-03-14T06:03:33;6.13;;;1.70;;
61025;SDS011;46911;32.650;-16.902;2023-03-14T06:05:34;12.15;;;2.10;;
61025;SDS011;46911;32.650;-16.902;2023-03-14T06:07:35;9.70;;;1.60;;
61025;SDS011;46911;32.650;-16.902;2023-03-14T06:09:39;11.90;;;1.55;;
61025;SDS011;46911;32.650;-16.902;2023-03-14T06:11:40;14.43;;;1.73;;
61025;SDS011;46911;32.650;-16.902;2023-03-14T06:13:44;6.38;;;1.20;;
61025;SDS011;46911;32.650;-16.902;2023-03-14T06:15:46;9.70;;;1.67;;
61025;SDS011;46911;32.650;-16.902;2023-03-14T06:17:47;7.43;;;1.58;;
61025;SDS011;46911;32.650;-16.902;2023-03-14T06:19:55;8.13;;;1.55;;
61025;SDS011;46911;32.650;-16.902;2023-03-14T06:21:59;7.57;;;2.35;;
61025;SDS011;46911;32.650;-16.902;2023-03-14T06:24:00;14.70;;;1.60;;
61025;SDS011;46911;32.650;-16.902;2023-03-14T06:26:04;5.18;;;1.95;;
61025;SDS011;46911;32.650;-16.902;2023-03-14T06:28:08;11.55;;;1.77;;
61025;SDS011;46911;32.650;-16.902;2023-03-14T06:30:09;11.73;;;2.25;;
61025;SDS011;46911;32.650;-16.902;2023-03-14T06:32:13;4.85;;;2.00;;
61025;SDS011;46911;32.650;-16.902;2023-03-14T06:34:16;6.85;;;1.35;;
61025;SDS011;46911;32.650;-16.902;2023-03-14T06:36:20;4.68;;;1.70;;
61025;SDS011;46911;32.650;-16.902;2023-03-14T06:38:23;5.97;;;1.23;;
61025;SDS011;46911;32.650;-16.902;2023-03-14T06:40:28;7.50;;;1.50;;
61025;SDS011;46911;32.650;-16.902;2023-03-14T06:42:37;3.60;;;1.30;;
61025;SDS011;46911;32.650;-16.902;2023-03-14T06:44:41;5.32;;;1.40;;
61025;SDS011;46911;32.650;-16.902;2023-03-14T06:46:44;4.05;;;1.20;;
61025;SDS011;46911;32.650;-16.902;2023-03-14T06:48:45;7.13;;;1.63;;
61025;SDS011;46911;32.650;-16.902;2023-03-14T06:50:50;5.60;;;1.90;;
61025;SDS011;46911;32.650;-16.902;2023-03-14T06:52:53;5.53;;;1.83;;
61025;SDS011;46911;32.650;-16.902;2023-03-14T06:54:58;4.07;;;1.58;;
61025;SDS011;46911;32.650;-16.902;2023-03-14T06:57:00;11.32;;;1.58;;
61025;SDS011;46911;32.650;-16.902;2023-03-14T06:59:05;3.92;;;1.73;;
61025;SDS011;46911;32.650;-16.902;2023-03-14T07:01:12;3.15;;;1.63;;
61025;SDS011;46911;32.650;-16.902;2023-03-14T07:03:21;5.00;;;1.45;;
61025;SDS011;46911;32.650;-16.902;2023-03-14T07:05:23;6.53;;;1.10;;
61025;SDS011;46911;32.650;-16.902;2023-03-14T07:07:25;5.30;;;1.67;;
61025;SDS011;46911;32.650;-16.902;2023-03-14T07:09:26;4.38;;;1.55;;
61025;SDS011;46911;32.650;-16.902;2023-03-14T07:11:32;7.50;;;1.63;;
61025;SDS011;46911;32.650;-16.902;2023-03-14T07:13:40;7.88;;;2.35;;
61025;SDS011;46911;32.650;-16.902;2023-03-14T07:15:41;9.68;;;1.73;;
61025;SDS011;46911;32.650;-16.902;2023-03-14T07:17:48;6.85;;;1.38;;
61025;SDS011;46911;32.650;-16.902;2023-03-14T07:19:55;5.05;;;1.98;;
61025;SDS011;46911;32.650;-16.902;2023-03-14T07:21:57;9.30;;;2.30;;
61025;SDS011;46911;32.650;-16.902;2023-03-14T07:24:03;12.43;;;3.15;;
61025;SDS011;46911;32.650;-16.902;2023-03-14T07:26:06;8.57;;;1.90;;
61025;SDS011;46911;32.650;-16.902;2023-03-14T07:28:12;6.45;;;1.58;;
61025;SDS011;46911;32.650;-16.902;2023-03-14T07:30:15;6.00;;;1.88;;
61025;SDS011;46911;32.650;-16.902;2023-03-14T07:32:16;7.18;;;2.08;;
61025;SDS011;46911;32.650;-16.902;2023-03-14T07:34:25;9.50;;;1.88;;
61025;SDS011;46911;32.650;-16.902;2023-03-14T07:36:30;7.85;;;1.70;;
61025;SDS011;46911;32.650;-16.902;2023-03-14T07:38:38;11.82;;;1.88;;
61025;SDS011;46911;32.650;-16.902;2023-03-14T07:40:59;6.82;;;1.73;;
61025;SDS011;46911;32.650;-16.902;2023-03-14T07:43:07;5.85;;;2.03;;
61025;SDS011;46911;32.650;-16.902;2023-03-14T07:45:19;8.70;;;2.17;;
61025;SDS011;46911;32.650;-16.902;2023-03-14T07:47:22;5.65;;;2.00;;
61025;SDS011;46911;32.650;-16.902;2023-03-14T07:49:28;12.63;;;1.98;;
61025;SDS011;46911;32.650;-16.902;2023-03-14T07:51:29;7.13;;;1.92;;
61025;SDS011;46911;32.650;-16.902;2023-03-14T07:53:32;11.77;;;2.08;;
61025;SDS011;46911;32.650;-16.902;2023-03-14T07:55:33;4.70;;;1.88;;
61025;SDS011;46911;32.650;-16.902;2023-03-14T07:57:34;12.07;;;2.15;;
61025;SDS011;46911;32.650;-16.902;2023-03-14T07:59:35;10.40;;;2.00;;
61025;SDS011;46911;32.650;-16.902;2023-03-14T08:01:36;5.55;;;1.60;;
61025;SDS011;46911;32.650;-16.902;2023-03-14T08:03:39;10.25;;;2.10;;
61025;SDS011;46911;32.650;-16.902;2023-03-14T08:05:40;7.63;;;1.80;;
61025;SDS011;46911;32.650;-16.902;2023-03-14T08:07:42;5.93;;;1.63;;
61025;SDS011;46911;32.650;-16.902;2023-03-14T08:09:43;9.77;;;1.73;;
61025;SDS011;46911;32.650;-16.902;2023-03-14T08:11:44;4.32;;;1.65;;
61025;SDS011;46911;32.650;-16.902;2023-03-14T08:13:48;5.30;;;1.75;;
61025;SDS011;46911;32.650;-16.902;2023-03-14T08:15:50;7.88;;;1.67;;
61025;SDS011;46911;32.650;-16.902;2023-03-14T08:17:54;5.95;;;1.88;;
61025;SDS011;46911;32.650;-16.902;2023-03-14T08:19:57;10.60;;;2.00;;
61025;SDS011;46911;32.650;-16.902;2023-03-14T08:22:01;8.55;;;1.95;;
61025;SDS011;46911;32.650;-16.902;2023-03-14T08:24:07;5.53;;;2.15;;
61025;SDS011;46911;32.650;-16.902;2023-03-14T08:26:15;11.38;;;2.13;;
61025;SDS011;46911;32.650;-16.902;2023-03-14T08:28:16;5.32;;;1.85;;
61025;SDS011;46911;32.650;-16.902;2023-03-14T08:30:20;6.75;;;1.85;;
61025;SDS011;46911;32.650;-16.902;2023-03-14T08:32:22;7.93;;;1.60;;
61025;SDS011;46911;32.650;-16.902;2023-03-14T08:34:23;10.40;;;1.85;;
61025;SDS011;46911;32.650;-16.902;2023-03-14T08:36:27;6.63;;;1.48;;
61025;SDS011;46911;32.650;-16.902;2023-03-14T08:38:31;7.55;;;1.80;;
61025;SDS011;46911;32.650;-16.902;2023-03-14T08:40:35;8.45;;;1.80;;
61025;SDS011;46911;32.650;-16.902;2023-03-14T08:42:36;8.45;;;2.10;;
61025;SDS011;46911;32.650;-16.902;2023-03-14T08:44:40;14.77;;;1.95;;
61025;SDS011;46911;32.650;-16.902;2023-03-14T08:46:46;12.52;;;1.90;;
61025;SDS011;46911;32.650;-16.902;2023-03-14T08:48:49;10.98;;;3.85;;
61025;SDS011;46911;32.650;-16.902;2023-03-14T08:50:50;9.77;;;2.00;;
61025;SDS011;46911;32.650;-16.902;2023-03-14T08:52:51;9.18;;;1.58;;
61025;SDS011;46911;32.650;-16.902;2023-03-14T08:54:54;21.33;;;1.88;;
61025;SDS011;46911;32.650;-16.902;2023-03-14T08:56:55;9.75;;;2.20;;
61025;SDS011;46911;32.650;-16.902;2023-03-14T08:58:56;5.38;;;2.03;;
61025;SDS011;46911;32.650;-16.902;2023-03-14T09:00:59;6.50;;;1.75;;
61025;SDS011;46911;32.650;-16.902;2023-03-14T09:03:05;14.63;;;2.75;;
61025;SDS011;46911;32.650;-16.902;2023-03-14T09:05:07;10.90;;;2.40;;
61025;SDS011;46911;32.650;-16.902;2023-03-14T09:07:13;13.50;;;1.92;;
61025;SDS011;46911;32.650;-16.902;2023-03-14T09:09:16;9.98;;;1.98;;
61025;SDS011;46911;32.650;-16.902;2023-03-14T09:11:20;7.65;;;1.88;;
61025;SDS011;46911;32.650;-16.902;2023-03-14T09:13:23;9.50;;;2.03;;
61025;SDS011;46911;32.650;-16.902;2023-03-14T09:15:24;21.58;;;2.70;;
61025;SDS011;46911;32.650;-16.902;2023-03-14T09:17:25;12.43;;;2.30;;
61025;SDS011;46911;32.650;-16.902;2023-03-14T09:19:29;14.93;;;2.70;;
61025;SDS011;46911;32.650;-16.902;2023-03-14T09:21:33;13.15;;;3.08;;
61025;SDS011;46911;32.650;-16.902;2023-03-14T09:23:34;20.90;;;2.25;;
61025;SDS011;46911;32.650;-16.902;2023-03-14T09:25:35;21.00;;;2.90;;
61025;SDS011;46911;32.650;-16.902;2023-03-14T09:27:36;10.10;;;2.58;;
61025;SDS011;46911;32.650;-16.902;2023-03-14T09:29:39;18.52;;;2.97;;
61025;SDS011;46911;32.650;-16.902;2023-03-14T09:31:42;12.93;;;2.30;;
61025;SDS011;46911;32.650;-16.902;2023-03-14T09:33:43;16.40;;;2.53;;
61025;SDS011;46911;32.650;-16.902;2023-03-14T09:35:44;15.35;;;2.75;;
61025;SDS011;46911;32.650;-16.902;2023-03-14T09:37:45;15.90;;;2.65;;
61025;SDS011;46911;32.650;-16.902;2023-03-14T09:39:46;22.55;;;3.10;;
61025;SDS011;46911;32.650;-16.902;2023-03-14T09:41:55;17.25;;;2.88;;
61025;SDS011;46911;32.650;-16.902;2023-03-14T09:46:21;26.35;;;4.57;;
61025;SDS011;46911;32.650;-16.902;2023-03-14T09:48:26;16.23;;;3.00;;
61025;SDS011;46911;32.650;-16.902;2023-03-14T09:50:49;19.38;;;3.25;;
61025;SDS011;46911;32.650;-16.902;2023-03-14T09:53:40;18.58;;;3.38;;
61025;SDS011;46911;32.650;-16.902;2023-03-14T09:57:25;21.63;;;3.95;;
61025;SDS011;46911;32.650;-16.902;2023-03-14T09:59:27;25.55;;;3.17;;
61025;SDS011;46911;32.650;-16.902;2023-03-14T10:01:32;15.10;;;3.65;;
61025;SDS011;46911;32.650;-16.902;2023-03-14T10:03:34;16.98;;;3.40;;
61025;SDS011;46911;32.650;-16.902;2023-03-14T10:05:41;17.98;;;3.72;;
61025;SDS011;46911;32.650;-16.902;2023-03-14T10:07:46;15.00;;;3.22;;
61025;SDS011;46911;32.650;-16.902;2023-03-14T10:09:48;18.30;;;3.72;;
61025;SDS011;46911;32.650;-16.902;2023-03-14T10:11:54;14.43;;;3.10;;
61025;SDS011;46911;32.650;-16.902;2023-03-14T10:14:06;16.75;;;3.45;;
61025;SDS011;46911;32.650;-16.902;2023-03-14T10:16:09;19.90;;;3.78;;
61025;SDS011;46911;32.650;-16.902;2023-03-14T10:18:11;20.15;;;4.43;;
61025;SDS011;46911;32.650;-16.902;2023-03-14T10:20:34;14.35;;;3.92;;
61025;SDS011;46911;32.650;-16.902;2023-03-14T10:22:38;16.00;;;3.63;;
61025;SDS011;46911;32.650;-16.902;2023-03-14T10:24:39;28.67;;;4.22;;
61025;SDS011;46911;32.650;-16.902;2023-03-14T10:26:51;23.77;;;4.53;;
61025;SDS011;46911;32.650;-16.902;2023-03-14T10:29:00;25.20;;;4.28;;
61025;SDS011;46911;32.650;-16.902;2023-03-14T10:31:12;22.73;;;4.95;;
61025;SDS011;46911;32.650;-16.902;2023-03-14T10:33:21;23.45;;;4.75;;
61025;SDS011;46911;32.650;-16.902;2023-03-14T10:35:23;15.63;;;3.50;;
61025;SDS011;46911;32.650;-16.902;2023-03-14T10:37:29;22.30;;;4.45;;
61025;SDS011;46911;32.650;-16.902;2023-03-14T10:41:53;18.50;;;4.20;;
61025;SDS011;46911;32.650;-16.902;2023-03-14T10:43:58;29.20;;;4.10;;
61025;SDS011;46911;32.650;-16.902;2023-03-14T10:46:09;17.15;;;3.35;;
61025;SDS011;46911;32.650;-16.902;2023-03-14T10:48:35;14.85;;;2.88;;
61025;SDS011;46911;32.650;-16.902;2023-03-14T10:50:55;19.17;;;2.88;;
61025;SDS011;46911;32.650;-16.902;2023-03-14T10:53:00;15.80;;;2.92;;
61025;SDS011;46911;32.650;-16.902;2023-03-14T10:55:09;23.85;;;3.90;;
61025;SDS011;46911;32.650;-16.902;2023-03-14T10:57:18;20.52;;;3.45;;
61025;SDS011;46911;32.650;-16.902;2023-03-14T10:59:20;19.35;;;2.83;;
61025;SDS011;46911;32.650;-16.902;2023-03-14T11:03:42;16.45;;;3.13;;
61025;SDS011;46911;32.650;-16.902;2023-03-14T11:05:51;18.73;;;3.22;;
61025;SDS011;46911;32.650;-16.902;2023-03-14T11:08:18;26.15;;;3.72;;
61025;SDS011;46911;32.650;-16.902;2023-03-14T11:10:33;19.98;;;3.50;;
61025;SDS011;46911;32.650;-16.902;2023-03-14T11:15:06;20.20;;;4.10;;
61025;SDS011;46911;32.650;-16.902;2023-03-14T11:17:36;17.98;;;3.45;;
61025;SDS011;46911;32.650;-16.902;2023-03-14T11:20:22;18.17;;;3.78;;
61025;SDS011;46911;32.650;-16.902;2023-03-14T11:24:45;17.02;;;3.45;;
61025;SDS011;46911;32.650;-16.902;2023-03-14T11:31:47;29.23;;;4.88;;
61025;SDS011;46911;32.650;-16.902;2023-03-14T11:36:29;21.17;;;4.50;;
61025;SDS011;46911;32.650;-16.902;2023-03-14T11:40:48;18.02;;;3.75;;
61025;SDS011;46911;32.650;-16.902;2023-03-14T11:43:05;20.98;;;4.95;;
61025;SDS011;46911;32.650;-16.902;2023-03-14T11:45:14;17.85;;;4.63;;
61025;SDS011;46911;32.650;-16.902;2023-03-14T11:47:34;22.85;;;3.67;;
61025;SDS011;46911;32.650;-16.902;2023-03-14T11:49:42;24.95;;;3.88;;
61025;SDS011;46911;32.650;-16.902;2023-03-14T11:51:50;23.13;;;3.97;;
61025;SDS011;46911;32.650;-16.902;2023-03-14T11:54:00;23.08;;;3.92;;
61025;SDS011;46911;32.650;-16.902;2023-03-14T11:56:29;15.50;;;2.95;;
61025;SDS011;46911;32.650;-16.902;2023-03-14T11:58:39;21.25;;;4.47;;
61025;SDS011;46911;32.650;-16.902;2023-03-14T12:00:53;25.15;;;4.32;;
61025;SDS011;46911;32.650;-16.902;2023-03-14T12:03:11;29.73;;;4.30;;
61025;SDS011;46911;32.650;-16.902;2023-03-14T12:07:37;24.13;;;4.57;;
61025;SDS011;46911;32.650;-16.902;2023-03-14T12:10:01;26.90;;;4.72;;
61025;SDS011;46911;32.650;-16.902;2023-03-14T12:12:03;22.67;;;5.03;;
61025;SDS011;46911;32.650;-16.902;2023-03-14T12:14:19;27.27;;;4.63;;
61025;SDS011;46911;32.650;-16.902;2023-03-14T12:18:28;18.10;;;3.42;;
61025;SDS011;46911;32.650;-16.902;2023-03-14T12:20:31;28.52;;;4.78;;
61025;SDS011;46911;32.650;-16.902;2023-03-14T12:22:46;21.23;;;3.78;;
61025;SDS011;46911;32.650;-16.902;2023-03-14T12:24:51;27.30;;;4.43;;
61025;SDS011;46911;32.650;-16.902;2023-03-14T12:27:37;20.55;;;4.20;;
61025;SDS011;46911;32.650;-16.902;2023-03-14T12:29:57;20.83;;;4.07;;
61025;SDS011;46911;32.650;-16.902;2023-03-14T12:34:44;25.67;;;4.22;;
61025;SDS011;46911;32.650;-16.902;2023-03-14T12:38:56;19.13;;;3.72;;
61025;SDS011;46911;32.650;-16.902;2023-03-14T12:41:25;20.65;;;4.53;;
61025;SDS011;46911;32.650;-16.902;2023-03-14T12:43:28;26.58;;;3.72;;
61025;SDS011;46911;32.650;-16.902;2023-03-14T12:45:35;19.20;;;4.05;;
61025;SDS011;46911;32.650;-16.902;2023-03-14T12:49:38;27.90;;;3.55;;
61025;SDS011;46911;32.650;-16.902;2023-03-14T12:51:40;19.73;;;4.07;;
61025;SDS011;46911;32.650;-16.902;2023-03-14T12:56:05;22.52;;;4.50;;
61025;SDS011;46911;32.650;-16.902;2023-03-14T13:00:30;27.67;;;3.70;;
61025;SDS011;46911;32.650;-16.902;2023-03-14T13:02:42;24.92;;;3.45;;
61025;SDS011;46911;32.650;-16.902;2023-03-14T13:04:52;27.85;;;4.30;;
61025;SDS011;46911;32.650;-16.902;2023-03-14T13:06:58;20.48;;;3.75;;
61025;SDS011;46911;32.650;-16.902;2023-03-14T13:09:23;19.02;;;4.03;;
61025;SDS011;46911;32.650;-16.902;2023-03-14T13:11:31;23.42;;;3.97;;
61025;SDS011;46911;32.650;-16.902;2023-03-14T13:13:34;14.82;;;3.22;;
61025;SDS011;46911;32.650;-16.902;2023-03-14T13:15:44;19.63;;;4.55;;
61025;SDS011;46911;32.650;-16.902;2023-03-14T13:17:49;21.80;;;3.85;;
61025;SDS011;46911;32.650;-16.902;2023-03-14T13:19:53;18.42;;;3.95;;
61025;SDS011;46911;32.650;-16.902;2023-03-14T13:22:14;17.67;;;3.95;;
61025;SDS011;46911;32.650;-16.902;2023-03-14T13:24:26;20.65;;;4.18;;
61025;SDS011;46911;32.650;-16.902;2023-03-14T13:26:32;28.73;;;4.63;;
61025;SDS011;46911;32.650;-16.902;2023-03-14T13:28:42;19.48;;;3.95;;
61025;SDS011;46911;32.650;-16.902;2023-03-14T13:30:49;22.95;;;4.25;;